Main page
METAR-TAF:

METAR-TAF

Airports :

Lençóis Airport

Lençóis, Bahia, Brazil

latitude: 12-29-00S, longitude: 041-16-23W, elevation: 511 m

Current weather observation

The report was made 45 minutes ago, at 14:00 UTC
Wind 3 kt from variable directions
Temperature 29°C
Humidity 62%
Pressure 1015 hPa
Visibility 10 km or more
Few clouds at a height of 3500 ft

METAR: SBLE 211400Z AUTO VRB03KT 9999 FEW035 29/21 Q1015

Time: 11:45 (14:45 UTC)


TAF: missing

Weather observations and forecasts of more than 4000 airports (METAR and TAF reports).

The available stations are represented by yellow and red dots on the map.

Hover mouse over dot to see the name of the station.

Then click to see weather observations and forecasts.

To change the map : click on the green buttons with a black cross to zoom in, on the green button with a dash to zoom out, or on the green arrows for adjacent maps.


METAR-TAF: